sensor_id;sensor_type;location;lat;lon;timestamp;P1;durP1;ratioP1;P2;durP2;ratioP2
78489;SDS011;67776;52.012;4.736;2024-02-26T00:01:55;9.20;;;4.00;;
78489;SDS011;67776;52.012;4.736;2024-02-26T00:04:20;10.40;;;4.45;;
78489;SDS011;67776;52.012;4.736;2024-02-26T00:06:46;11.20;;;4.30;;
78489;SDS011;67776;52.012;4.736;2024-02-26T00:09:13;9.77;;;4.38;;
78489;SDS011;67776;52.012;4.736;2024-02-26T00:11:38;7.73;;;4.07;;
78489;SDS011;67776;52.012;4.736;2024-02-26T00:14:04;10.32;;;4.50;;
78489;SDS011;67776;52.012;4.736;2024-02-26T00:16:29;10.40;;;4.63;;
78489;SDS011;67776;52.012;4.736;2024-02-26T00:18:55;12.13;;;4.57;;
78489;SDS011;67776;52.012;4.736;2024-02-26T00:21:20;8.77;;;4.17;;
78489;SDS011;67776;52.012;4.736;2024-02-26T00:23:46;8.63;;;4.37;;
78489;SDS011;67776;52.012;4.736;2024-02-26T00:26:11;8.87;;;4.70;;
78489;SDS011;67776;52.012;4.736;2024-02-26T00:28:37;9.65;;;4.40;;
78489;SDS011;67776;52.012;4.736;2024-02-26T00:31:02;9.07;;;4.67;;
78489;SDS011;67776;52.012;4.736;2024-02-26T00:33:28;9.60;;;5.00;;
78489;SDS011;67776;52.012;4.736;2024-02-26T00:35:53;8.87;;;4.73;;
78489;SDS011;67776;52.012;4.736;2024-02-26T00:38:18;9.55;;;4.80;;
78489;SDS011;67776;52.012;4.736;2024-02-26T00:40:44;8.87;;;4.50;;
78489;SDS011;67776;52.012;4.736;2024-02-26T00:43:09;9.53;;;4.27;;
78489;SDS011;67776;52.012;4.736;2024-02-26T00:45:35;9.63;;;4.13;;
78489;SDS011;67776;52.012;4.736;2024-02-26T00:48:00;10.63;;;4.32;;
78489;SDS011;67776;52.012;4.736;2024-02-26T00:50:32;10.77;;;4.25;;
78489;SDS011;67776;52.012;4.736;2024-02-26T00:52:58;10.17;;;4.90;;
78489;SDS011;67776;52.012;4.736;2024-02-26T00:55:24;11.80;;;5.03;;
78489;SDS011;67776;52.012;4.736;2024-02-26T00:57:49;9.73;;;4.50;;
78489;SDS011;67776;52.012;4.736;2024-02-26T01:00:14;9.07;;;4.70;;
78489;SDS011;67776;52.012;4.736;2024-02-26T01:02:40;8.97;;;4.50;;
78489;SDS011;67776;52.012;4.736;2024-02-26T01:05:06;10.03;;;4.50;;
78489;SDS011;67776;52.012;4.736;2024-02-26T01:07:34;9.75;;;4.78;;
78489;SDS011;67776;52.012;4.736;2024-02-26T01:10:01;10.38;;;4.53;;
78489;SDS011;67776;52.012;4.736;2024-02-26T01:12:27;9.10;;;4.82;;
78489;SDS011;67776;52.012;4.736;2024-02-26T01:14:52;8.80;;;4.80;;
78489;SDS011;67776;52.012;4.736;2024-02-26T01:17:17;10.90;;;5.17;;
78489;SDS011;67776;52.012;4.736;2024-02-26T01:19:43;9.48;;;4.65;;
78489;SDS011;67776;52.012;4.736;2024-02-26T01:22:09;9.07;;;4.33;;
78489;SDS011;67776;52.012;4.736;2024-02-26T01:24:34;8.90;;;5.00;;
78489;SDS011;67776;52.012;4.736;2024-02-26T01:27:00;11.43;;;4.90;;
78489;SDS011;67776;52.012;4.736;2024-02-26T01:29:25;10.82;;;5.28;;
78489;SDS011;67776;52.012;4.736;2024-02-26T01:31:50;10.57;;;5.47;;
78489;SDS011;67776;52.012;4.736;2024-02-26T01:34:16;9.90;;;5.17;;
78489;SDS011;67776;52.012;4.736;2024-02-26T01:36:43;8.77;;;4.85;;
78489;SDS011;67776;52.012;4.736;2024-02-26T01:39:08;11.60;;;5.27;;
78489;SDS011;67776;52.012;4.736;2024-02-26T01:41:36;10.95;;;5.35;;
78489;SDS011;67776;52.012;4.736;2024-02-26T01:44:01;11.10;;;5.90;;
78489;SDS011;67776;52.012;4.736;2024-02-26T01:46:27;10.53;;;5.23;;
78489;SDS011;67776;52.012;4.736;2024-02-26T01:48:53;10.82;;;5.20;;
78489;SDS011;67776;52.012;4.736;2024-02-26T01:51:19;8.70;;;4.90;;
78489;SDS011;67776;52.012;4.736;2024-02-26T01:53:44;10.83;;;5.10;;
78489;SDS011;67776;52.012;4.736;2024-02-26T01:56:10;10.48;;;5.28;;
78489;SDS011;67776;52.012;4.736;2024-02-26T01:58:37;11.88;;;5.40;;
78489;SDS011;67776;52.012;4.736;2024-02-26T02:01:02;11.93;;;5.80;;
78489;SDS011;67776;52.012;4.736;2024-02-26T02:03:28;9.33;;;4.87;;
78489;SDS011;67776;52.012;4.736;2024-02-26T02:05:55;9.93;;;5.20;;
78489;SDS011;67776;52.012;4.736;2024-02-26T02:08:21;11.00;;;5.50;;
78489;SDS011;67776;52.012;4.736;2024-02-26T02:10:46;9.40;;;5.32;;
78489;SDS011;67776;52.012;4.736;2024-02-26T02:13:14;11.63;;;5.75;;
78489;SDS011;67776;52.012;4.736;2024-02-26T02:15:39;11.13;;;5.13;;
78489;SDS011;67776;52.012;4.736;2024-02-26T02:18:05;11.60;;;5.70;;
78489;SDS011;67776;52.012;4.736;2024-02-26T02:20:34;9.98;;;5.30;;
78489;SDS011;67776;52.012;4.736;2024-02-26T02:22:59;10.90;;;5.68;;
78489;SDS011;67776;52.012;4.736;2024-02-26T02:25:25;11.43;;;5.97;;
78489;SDS011;67776;52.012;4.736;2024-02-26T02:27:50;11.30;;;5.67;;
78489;SDS011;67776;52.012;4.736;2024-02-26T02:30:18;11.77;;;5.75;;
78489;SDS011;67776;52.012;4.736;2024-02-26T02:32:44;12.35;;;5.45;;
78489;SDS011;67776;52.012;4.736;2024-02-26T02:35:09;11.93;;;5.53;;
78489;SDS011;67776;52.012;4.736;2024-02-26T02:37:35;11.90;;;6.35;;
78489;SDS011;67776;52.012;4.736;2024-02-26T02:40:00;11.77;;;6.37;;
78489;SDS011;67776;52.012;4.736;2024-02-26T02:42:25;9.93;;;5.43;;
78489;SDS011;67776;52.012;4.736;2024-02-26T02:44:51;10.63;;;5.63;;
78489;SDS011;67776;52.012;4.736;2024-02-26T02:47:16;11.07;;;5.70;;
78489;SDS011;67776;52.012;4.736;2024-02-26T02:49:42;10.85;;;5.53;;
78489;SDS011;67776;52.012;4.736;2024-02-26T02:52:07;10.77;;;5.93;;
78489;SDS011;67776;52.012;4.736;2024-02-26T02:54:32;11.80;;;6.00;;
78489;SDS011;67776;52.012;4.736;2024-02-26T02:56:58;11.57;;;5.77;;
78489;SDS011;67776;52.012;4.736;2024-02-26T02:59:23;11.67;;;5.83;;
78489;SDS011;67776;52.012;4.736;2024-02-26T03:01:48;12.40;;;6.00;;
78489;SDS011;67776;52.012;4.736;2024-02-26T03:04:14;11.40;;;5.88;;
78489;SDS011;67776;52.012;4.736;2024-02-26T03:06:39;11.80;;;5.93;;
78489;SDS011;67776;52.012;4.736;2024-02-26T03:09:05;12.57;;;6.33;;
78489;SDS011;67776;52.012;4.736;2024-02-26T03:11:30;13.87;;;6.40;;
78489;SDS011;67776;52.012;4.736;2024-02-26T03:13:55;11.40;;;6.07;;
78489;SDS011;67776;52.012;4.736;2024-02-26T03:16:21;14.27;;;6.67;;
78489;SDS011;67776;52.012;4.736;2024-02-26T03:18:46;13.43;;;6.77;;
78489;SDS011;67776;52.012;4.736;2024-02-26T03:21:11;11.20;;;6.25;;
78489;SDS011;67776;52.012;4.736;2024-02-26T03:23:37;11.90;;;6.70;;
78489;SDS011;67776;52.012;4.736;2024-02-26T03:26:05;13.17;;;6.53;;
78489;SDS011;67776;52.012;4.736;2024-02-26T03:28:31;12.68;;;6.32;;
78489;SDS011;67776;52.012;4.736;2024-02-26T03:30:58;11.50;;;5.80;;
78489;SDS011;67776;52.012;4.736;2024-02-26T03:33:24;11.25;;;6.22;;
78489;SDS011;67776;52.012;4.736;2024-02-26T03:35:49;12.63;;;6.63;;
78489;SDS011;67776;52.012;4.736;2024-02-26T03:38:14;13.33;;;6.67;;
78489;SDS011;67776;52.012;4.736;2024-02-26T03:40:40;13.87;;;7.10;;
78489;SDS011;67776;52.012;4.736;2024-02-26T03:43:05;14.03;;;6.67;;
78489;SDS011;67776;52.012;4.736;2024-02-26T03:45:32;12.07;;;6.43;;
78489;SDS011;67776;52.012;4.736;2024-02-26T03:47:58;14.13;;;6.57;;
78489;SDS011;67776;52.012;4.736;2024-02-26T03:50:23;14.20;;;7.13;;
78489;SDS011;67776;52.012;4.736;2024-02-26T03:52:48;13.18;;;6.82;;
78489;SDS011;67776;52.012;4.736;2024-02-26T03:55:14;13.73;;;6.70;;
78489;SDS011;67776;52.012;4.736;2024-02-26T03:57:39;12.90;;;6.60;;
78489;SDS011;67776;52.012;4.736;2024-02-26T04:00:05;15.53;;;7.03;;
78489;SDS011;67776;52.012;4.736;2024-02-26T04:02:31;12.75;;;6.25;;
78489;SDS011;67776;52.012;4.736;2024-02-26T04:04:56;16.97;;;6.57;;
78489;SDS011;67776;52.012;4.736;2024-02-26T04:07:22;12.63;;;6.17;;
78489;SDS011;67776;52.012;4.736;2024-02-26T04:09:47;15.27;;;7.00;;
78489;SDS011;67776;52.012;4.736;2024-02-26T04:12:12;13.05;;;6.65;;
78489;SDS011;67776;52.012;4.736;2024-02-26T04:14:38;13.93;;;7.10;;
78489;SDS011;67776;52.012;4.736;2024-02-26T04:17:03;12.67;;;6.53;;
78489;SDS011;67776;52.012;4.736;2024-02-26T04:19:29;13.93;;;6.73;;
78489;SDS011;67776;52.012;4.736;2024-02-26T04:21:54;14.10;;;6.73;;
78489;SDS011;67776;52.012;4.736;2024-02-26T04:24:20;13.15;;;6.68;;
78489;SDS011;67776;52.012;4.736;2024-02-26T04:26:45;13.67;;;7.23;;
78489;SDS011;67776;52.012;4.736;2024-02-26T04:29:10;14.47;;;6.67;;
78489;SDS011;67776;52.012;4.736;2024-02-26T04:31:37;15.87;;;7.20;;
78489;SDS011;67776;52.012;4.736;2024-02-26T04:34:02;14.68;;;7.13;;
78489;SDS011;67776;52.012;4.736;2024-02-26T04:36:28;16.07;;;7.50;;
78489;SDS011;67776;52.012;4.736;2024-02-26T04:38:53;16.33;;;8.17;;
78489;SDS011;67776;52.012;4.736;2024-02-26T04:41:20;15.20;;;7.57;;
78489;SDS011;67776;52.012;4.736;2024-02-26T04:43:46;16.90;;;8.50;;
78489;SDS011;67776;52.012;4.736;2024-02-26T04:46:11;15.43;;;7.60;;
78489;SDS011;67776;52.012;4.736;2024-02-26T04:48:37;15.67;;;7.97;;
78489;SDS011;67776;52.012;4.736;2024-02-26T04:51:03;16.42;;;7.72;;
78489;SDS011;67776;52.012;4.736;2024-02-26T04:53:29;16.53;;;8.07;;
78489;SDS011;67776;52.012;4.736;2024-02-26T04:55:54;15.70;;;7.60;;
78489;SDS011;67776;52.012;4.736;2024-02-26T04:58:19;14.10;;;7.30;;
78489;SDS011;67776;52.012;4.736;2024-02-26T05:00:45;17.53;;;8.63;;
78489;SDS011;67776;52.012;4.736;2024-02-26T05:03:10;15.40;;;8.10;;
78489;SDS011;67776;52.012;4.736;2024-02-26T05:05:40;16.20;;;7.82;;
78489;SDS011;67776;52.012;4.736;2024-02-26T05:08:05;17.13;;;8.23;;
78489;SDS011;67776;52.012;4.736;2024-02-26T05:10:32;15.52;;;7.97;;
78489;SDS011;67776;52.012;4.736;2024-02-26T05:12:58;14.63;;;7.67;;
78489;SDS011;67776;52.012;4.736;2024-02-26T05:15:23;16.17;;;8.10;;
78489;SDS011;67776;52.012;4.736;2024-02-26T05:17:48;14.82;;;7.50;;
78489;SDS011;67776;52.012;4.736;2024-02-26T05:20:14;15.50;;;7.80;;
78489;SDS011;67776;52.012;4.736;2024-02-26T05:22:39;15.27;;;7.90;;
78489;SDS011;67776;52.012;4.736;2024-02-26T05:25:04;15.23;;;7.50;;
78489;SDS011;67776;52.012;4.736;2024-02-26T05:27:30;16.37;;;8.23;;
78489;SDS011;67776;52.012;4.736;2024-02-26T05:29:55;16.27;;;7.85;;
78489;SDS011;67776;52.012;4.736;2024-02-26T05:32:21;15.70;;;7.70;;
78489;SDS011;67776;52.012;4.736;2024-02-26T05:34:46;15.57;;;7.50;;
78489;SDS011;67776;52.012;4.736;2024-02-26T05:37:12;15.47;;;7.87;;
78489;SDS011;67776;52.012;4.736;2024-02-26T05:39:37;15.60;;;7.77;;
78489;SDS011;67776;52.012;4.736;2024-02-26T05:42:02;16.43;;;7.87;;
78489;SDS011;67776;52.012;4.736;2024-02-26T05:44:28;15.83;;;7.53;;
78489;SDS011;67776;52.012;4.736;2024-02-26T05:46:53;14.80;;;7.43;;
78489;SDS011;67776;52.012;4.736;2024-02-26T05:49:19;16.27;;;8.17;;
78489;SDS011;67776;52.012;4.736;2024-02-26T05:51:44;17.20;;;8.10;;
78489;SDS011;67776;52.012;4.736;2024-02-26T05:54:10;15.43;;;7.67;;
78489;SDS011;67776;52.012;4.736;2024-02-26T05:56:35;15.52;;;8.10;;
78489;SDS011;67776;52.012;4.736;2024-02-26T05:59:01;16.77;;;7.00;;
78489;SDS011;67776;52.012;4.736;2024-02-26T06:01:26;17.73;;;8.17;;
78489;SDS011;67776;52.012;4.736;2024-02-26T06:03:51;15.27;;;7.57;;
78489;SDS011;67776;52.012;4.736;2024-02-26T06:06:17;14.67;;;7.30;;
78489;SDS011;67776;52.012;4.736;2024-02-26T06:08:42;16.43;;;7.43;;
78489;SDS011;67776;52.012;4.736;2024-02-26T06:11:08;17.48;;;8.05;;
78489;SDS011;67776;52.012;4.736;2024-02-26T06:13:34;17.63;;;8.40;;
78489;SDS011;67776;52.012;4.736;2024-02-26T06:16:00;16.63;;;8.07;;
78489;SDS011;67776;52.012;4.736;2024-02-26T06:18:25;18.17;;;8.83;;
78489;SDS011;67776;52.012;4.736;2024-02-26T06:20:51;16.83;;;8.57;;
78489;SDS011;67776;52.012;4.736;2024-02-26T06:23:16;19.63;;;8.87;;
78489;SDS011;67776;52.012;4.736;2024-02-26T06:25:41;18.17;;;8.77;;
78489;SDS011;67776;52.012;4.736;2024-02-26T06:28:07;18.85;;;8.90;;
78489;SDS011;67776;52.012;4.736;2024-02-26T06:30:33;17.73;;;8.53;;
78489;SDS011;67776;52.012;4.736;2024-02-26T06:32:58;17.75;;;8.85;;
78489;SDS011;67776;52.012;4.736;2024-02-26T06:35:24;19.70;;;9.33;;
78489;SDS011;67776;52.012;4.736;2024-02-26T06:37:49;20.70;;;9.37;;
78489;SDS011;67776;52.012;4.736;2024-02-26T06:40:17;21.52;;;9.43;;
78489;SDS011;67776;52.012;4.736;2024-02-26T06:42:43;20.93;;;8.87;;
78489;SDS011;67776;52.012;4.736;2024-02-26T06:45:08;18.55;;;8.65;;
78489;SDS011;67776;52.012;4.736;2024-02-26T06:47:34;18.70;;;8.97;;
78489;SDS011;67776;52.012;4.736;2024-02-26T06:50:00;19.75;;;8.48;;
78489;SDS011;67776;52.012;4.736;2024-02-26T06:52:25;20.07;;;8.90;;
78489;SDS011;67776;52.012;4.736;2024-02-26T06:54:51;22.00;;;9.73;;
78489;SDS011;67776;52.012;4.736;2024-02-26T06:57:18;23.30;;;9.73;;
78489;SDS011;67776;52.012;4.736;2024-02-26T06:59:46;22.20;;;9.57;;
78489;SDS011;67776;52.012;4.736;2024-02-26T07:02:12;21.67;;;10.07;;
78489;SDS011;67776;52.012;4.736;2024-02-26T07:04:41;23.33;;;9.98;;
78489;SDS011;67776;52.012;4.736;2024-02-26T07:07:07;22.57;;;9.90;;
78489;SDS011;67776;52.012;4.736;2024-02-26T07:09:33;23.48;;;10.73;;
78489;SDS011;67776;52.012;4.736;2024-02-26T07:11:58;25.27;;;10.17;;
78489;SDS011;67776;52.012;4.736;2024-02-26T07:14:23;23.57;;;9.87;;
78489;SDS011;67776;52.012;4.736;2024-02-26T07:16:49;23.25;;;10.48;;
78489;SDS011;67776;52.012;4.736;2024-02-26T07:19:15;24.53;;;11.03;;
78489;SDS011;67776;52.012;4.736;2024-02-26T07:21:40;28.13;;;12.70;;
78489;SDS011;67776;52.012;4.736;2024-02-26T07:24:05;28.08;;;12.60;;
78489;SDS011;67776;52.012;4.736;2024-02-26T07:26:31;29.27;;;13.07;;
78489;SDS011;67776;52.012;4.736;2024-02-26T07:28:57;29.97;;;13.20;;
78489;SDS011;67776;52.012;4.736;2024-02-26T07:31:22;28.50;;;13.10;;
78489;SDS011;67776;52.012;4.736;2024-02-26T07:33:48;31.30;;;13.73;;
78489;SDS011;67776;52.012;4.736;2024-02-26T07:36:13;30.67;;;14.03;;
78489;SDS011;67776;52.012;4.736;2024-02-26T07:38:38;30.30;;;14.60;;
78489;SDS011;67776;52.012;4.736;2024-02-26T07:41:04;29.80;;;13.53;;
78489;SDS011;67776;52.012;4.736;2024-02-26T07:43:29;30.25;;;14.90;;
78489;SDS011;67776;52.012;4.736;2024-02-26T07:45:55;32.00;;;14.47;;
78489;SDS011;67776;52.012;4.736;2024-02-26T07:48:20;30.27;;;14.20;;
78489;SDS011;67776;52.012;4.736;2024-02-26T07:50:46;27.03;;;13.83;;
78489;SDS011;67776;52.012;4.736;2024-02-26T07:53:11;28.02;;;13.77;;
78489;SDS011;67776;52.012;4.736;2024-02-26T07:55:36;29.37;;;13.73;;
78489;SDS011;67776;52.012;4.736;2024-02-26T07:58:02;29.67;;;14.27;;
78489;SDS011;67776;52.012;4.736;2024-02-26T08:00:27;27.73;;;13.20;;
78489;SDS011;67776;52.012;4.736;2024-02-26T08:02:53;27.77;;;12.93;;
78489;SDS011;67776;52.012;4.736;2024-02-26T08:05:18;26.13;;;12.53;;
78489;SDS011;67776;52.012;4.736;2024-02-26T08:07:44;26.37;;;12.17;;
78489;SDS011;67776;52.012;4.736;2024-02-26T08:10:09;27.67;;;13.10;;
78489;SDS011;67776;52.012;4.736;2024-02-26T08:12:35;22.88;;;11.23;;
78489;SDS011;67776;52.012;4.736;2024-02-26T08:15:01;22.43;;;11.67;;
78489;SDS011;67776;52.012;4.736;2024-02-26T08:17:26;24.07;;;12.23;;
78489;SDS011;67776;52.012;4.736;2024-02-26T08:19:52;23.60;;;11.43;;
78489;SDS011;67776;52.012;4.736;2024-02-26T08:22:18;24.05;;;12.00;;
78489;SDS011;67776;52.012;4.736;2024-02-26T08:24:43;21.60;;;11.70;;
78489;SDS011;67776;52.012;4.736;2024-02-26T08:27:09;24.10;;;11.03;;
78489;SDS011;67776;52.012;4.736;2024-02-26T08:29:34;22.40;;;11.43;;
78489;SDS011;67776;52.012;4.736;2024-02-26T08:31:59;21.08;;;10.98;;
78489;SDS011;67776;52.012;4.736;2024-02-26T08:34:25;21.83;;;10.70;;
78489;SDS011;67776;52.012;4.736;2024-02-26T08:36:51;21.92;;;10.68;;
78489;SDS011;67776;52.012;4.736;2024-02-26T08:39:16;22.70;;;10.73;;
78489;SDS011;67776;52.012;4.736;2024-02-26T08:41:42;21.52;;;10.32;;
78489;SDS011;67776;52.012;4.736;2024-02-26T08:44:08;21.03;;;10.00;;
78489;SDS011;67776;52.012;4.736;2024-02-26T08:46:34;20.10;;;10.43;;
78489;SDS011;67776;52.012;4.736;2024-02-26T08:48:59;19.30;;;9.37;;
78489;SDS011;67776;52.012;4.736;2024-02-26T08:51:25;19.17;;;8.90;;
78489;SDS011;67776;52.012;4.736;2024-02-26T08:53:50;18.07;;;9.30;;
78489;SDS011;67776;52.012;4.736;2024-02-26T08:56:16;18.08;;;8.82;;
78489;SDS011;67776;52.012;4.736;2024-02-26T08:58:42;18.77;;;8.70;;
78489;SDS011;67776;52.012;4.736;2024-02-26T09:01:08;20.53;;;9.27;;
78489;SDS011;67776;52.012;4.736;2024-02-26T09:03:33;17.73;;;8.13;;
78489;SDS011;67776;52.012;4.736;2024-02-26T09:05:59;16.67;;;8.03;;
78489;SDS011;67776;52.012;4.736;2024-02-26T09:08:24;15.57;;;7.53;;
78489;SDS011;67776;52.012;4.736;2024-02-26T09:10:49;16.10;;;8.10;;
78489;SDS011;67776;52.012;4.736;2024-02-26T09:13:15;15.23;;;7.10;;
78489;SDS011;67776;52.012;4.736;2024-02-26T09:15:40;16.33;;;7.32;;
78489;SDS011;67776;52.012;4.736;2024-02-26T09:18:05;14.80;;;6.83;;
78489;SDS011;67776;52.012;4.736;2024-02-26T09:20:31;15.53;;;6.60;;
78489;SDS011;67776;52.012;4.736;2024-02-26T09:22:56;15.30;;;7.00;;
78489;SDS011;67776;52.012;4.736;2024-02-26T09:25:22;14.10;;;6.97;;
78489;SDS011;67776;52.012;4.736;2024-02-26T09:27:47;14.47;;;6.33;;
78489;SDS011;67776;52.012;4.736;2024-02-26T09:30:13;12.15;;;5.93;;
78489;SDS011;67776;52.012;4.736;2024-02-26T09:32:39;14.73;;;6.53;;
78489;SDS011;67776;52.012;4.736;2024-02-26T09:35:07;12.87;;;6.17;;
78489;SDS011;67776;52.012;4.736;2024-02-26T09:37:33;12.13;;;5.63;;
78489;SDS011;67776;52.012;4.736;2024-02-26T09:39:59;11.45;;;5.72;;
78489;SDS011;67776;52.012;4.736;2024-02-26T09:42:25;12.80;;;5.63;;
78489;SDS011;67776;52.012;4.736;2024-02-26T09:44:53;12.77;;;5.82;;
78489;SDS011;67776;52.012;4.736;2024-02-26T09:47:20;12.30;;;5.65;;
78489;SDS011;67776;52.012;4.736;2024-02-26T09:49:47;12.50;;;5.67;;
78489;SDS011;67776;52.012;4.736;2024-02-26T09:52:14;11.30;;;5.38;;
78489;SDS011;67776;52.012;4.736;2024-02-26T09:54:40;12.70;;;5.90;;
78489;SDS011;67776;52.012;4.736;2024-02-26T09:57:07;13.25;;;5.97;;
78489;SDS011;67776;52.012;4.736;2024-02-26T09:59:40;11.27;;;5.30;;
78489;SDS011;67776;52.012;4.736;2024-02-26T10:02:11;12.13;;;5.40;;
78489;SDS011;67776;52.012;4.736;2024-02-26T10:04:41;11.68;;;5.25;;
78489;SDS011;67776;52.012;4.736;2024-02-26T10:07:10;11.55;;;5.80;;
78489;SDS011;67776;52.012;4.736;2024-02-26T10:09:37;11.45;;;5.40;;
78489;SDS011;67776;52.012;4.736;2024-02-26T10:12:07;12.47;;;5.30;;
78489;SDS011;67776;52.012;4.736;2024-02-26T10:14:35;12.95;;;5.43;;
78489;SDS011;67776;52.012;4.736;2024-02-26T10:17:01;11.65;;;5.03;;
78489;SDS011;67776;52.012;4.736;2024-02-26T10:19:28;11.38;;;5.20;;
78489;SDS011;67776;52.012;4.736;2024-02-26T10:21:58;12.88;;;5.45;;
78489;SDS011;67776;52.012;4.736;2024-02-26T10:24:25;12.00;;;5.17;;
78489;SDS011;67776;52.012;4.736;2024-02-26T10:26:51;15.23;;;5.85;;
78489;SDS011;67776;52.012;4.736;2024-02-26T10:29:19;13.52;;;5.45;;
78489;SDS011;67776;52.012;4.736;2024-02-26T10:31:44;13.85;;;5.93;;
78489;SDS011;67776;52.012;4.736;2024-02-26T10:34:10;12.37;;;5.70;;
78489;SDS011;67776;52.012;4.736;2024-02-26T10:36:36;12.63;;;5.83;;
78489;SDS011;67776;52.012;4.736;2024-02-26T10:39:02;11.57;;;5.22;;
78489;SDS011;67776;52.012;4.736;2024-02-26T10:41:29;11.70;;;5.60;;
78489;SDS011;67776;52.012;4.736;2024-02-26T10:43:55;13.13;;;5.77;;
78489;SDS011;67776;52.012;4.736;2024-02-26T10:46:20;12.77;;;4.97;;
78489;SDS011;67776;52.012;4.736;2024-02-26T10:48:52;12.80;;;5.70;;
78489;SDS011;67776;52.012;4.736;2024-02-26T10:51:22;11.75;;;5.30;;
78489;SDS011;67776;52.012;4.736;2024-02-26T10:53:57;13.65;;;5.45;;
78489;SDS011;67776;52.012;4.736;2024-02-26T10:56:25;12.00;;;5.35;;
78489;SDS011;67776;52.012;4.736;2024-02-26T10:58:54;13.10;;;6.25;;
78489;SDS011;67776;52.012;4.736;2024-02-26T11:01:20;12.07;;;5.63;;
78489;SDS011;67776;52.012;4.736;2024-02-26T11:03:51;12.55;;;5.68;;
78489;SDS011;67776;52.012;4.736;2024-02-26T11:06:18;12.27;;;5.30;;
78489;SDS011;67776;52.012;4.736;2024-02-26T11:08:47;13.05;;;6.00;;
78489;SDS011;67776;52.012;4.736;2024-02-26T11:11:14;13.32;;;6.00;;
78489;SDS011;67776;52.012;4.736;2024-02-26T11:13:40;11.87;;;5.43;;
78489;SDS011;67776;52.012;4.736;2024-02-26T11:16:10;13.75;;;6.03;;
78489;SDS011;67776;52.012;4.736;2024-02-26T11:18:37;12.32;;;5.72;;
78489;SDS011;67776;52.012;4.736;2024-02-26T11:21:04;11.85;;;5.60;;
78489;SDS011;67776;52.012;4.736;2024-02-26T11:23:33;14.45;;;6.40;;
78489;SDS011;67776;52.012;4.736;2024-02-26T11:26:01;14.33;;;6.10;;
78489;SDS011;67776;52.012;4.736;2024-02-26T11:28:29;14.68;;;5.78;;
78489;SDS011;67776;52.012;4.736;2024-02-26T11:30:56;14.38;;;5.95;;
78489;SDS011;67776;52.012;4.736;2024-02-26T11:33:24;14.55;;;6.50;;
78489;SDS011;67776;52.012;4.736;2024-02-26T11:35:50;13.43;;;6.10;;
78489;SDS011;67776;52.012;4.736;2024-02-26T11:38:22;11.90;;;5.50;;
78489;SDS011;67776;52.012;4.736;2024-02-26T11:40:49;14.27;;;6.03;;
78489;SDS011;67776;52.012;4.736;2024-02-26T11:43:15;13.27;;;6.07;;
78489;SDS011;67776;52.012;4.736;2024-02-26T11:48:13;12.23;;;5.70;;
78489;SDS011;67776;52.012;4.736;2024-02-26T11:50:40;13.13;;;6.32;;
78489;SDS011;67776;52.012;4.736;2024-02-26T11:53:19;13.75;;;6.07;;
78489;SDS011;67776;52.012;4.736;2024-02-26T11:55:44;13.68;;;5.80;;
78489;SDS011;67776;52.012;4.736;2024-02-26T11:58:09;13.47;;;6.03;;
78489;SDS011;67776;52.012;4.736;2024-02-26T12:00:35;12.30;;;5.77;;
78489;SDS011;67776;52.012;4.736;2024-02-26T12:03:00;13.33;;;6.10;;
78489;SDS011;67776;52.012;4.736;2024-02-26T12:05:30;12.77;;;5.90;;
78489;SDS011;67776;52.012;4.736;2024-02-26T12:10:38;12.57;;;6.10;;
78489;SDS011;67776;52.012;4.736;2024-02-26T12:13:10;12.20;;;5.50;;
78489;SDS011;67776;52.012;4.736;2024-02-26T12:15:44;12.15;;;5.50;;
78489;SDS011;67776;52.012;4.736;2024-02-26T12:18:12;10.65;;;5.18;;
78489;SDS011;67776;52.012;4.736;2024-02-26T12:20:42;11.95;;;4.95;;
78489;SDS011;67776;52.012;4.736;2024-02-26T12:23:09;11.07;;;5.10;;
78489;SDS011;67776;52.012;4.736;2024-02-26T12:25:39;10.77;;;4.97;;
78489;SDS011;67776;52.012;4.736;2024-02-26T12:28:04;12.27;;;5.40;;
78489;SDS011;67776;52.012;4.736;2024-02-26T12:30:30;9.87;;;5.17;;
78489;SDS011;67776;52.012;4.736;2024-02-26T12:32:56;10.40;;;4.83;;
78489;SDS011;67776;52.012;4.736;2024-02-26T12:35:22;9.45;;;4.70;;
78489;SDS011;67776;52.012;4.736;2024-02-26T12:37:48;9.55;;;4.70;;
78489;SDS011;67776;52.012;4.736;2024-02-26T12:40:16;9.70;;;4.78;;
78489;SDS011;67776;52.012;4.736;2024-02-26T12:42:42;10.37;;;4.90;;
78489;SDS011;67776;52.012;4.736;2024-02-26T12:45:11;10.23;;;4.72;;
78489;SDS011;67776;52.012;4.736;2024-02-26T12:47:43;11.35;;;4.82;;
78489;SDS011;67776;52.012;4.736;2024-02-26T12:50:14;10.30;;;4.67;;
78489;SDS011;67776;52.012;4.736;2024-02-26T12:52:43;10.67;;;5.00;;
78489;SDS011;67776;52.012;4.736;2024-02-26T12:55:13;10.47;;;5.00;;
78489;SDS011;67776;52.012;4.736;2024-02-26T12:57:40;10.15;;;4.47;;
78489;SDS011;67776;52.012;4.736;2024-02-26T13:00:08;9.38;;;4.80;;
78489;SDS011;67776;52.012;4.736;2024-02-26T13:02:38;11.07;;;5.20;;
78489;SDS011;67776;52.012;4.736;2024-02-26T13:05:04;11.68;;;4.70;;
78489;SDS011;67776;52.012;4.736;2024-02-26T13:07:32;8.77;;;4.43;;
78489;SDS011;67776;52.012;4.736;2024-02-26T13:09:58;9.15;;;4.40;;
78489;SDS011;67776;52.012;4.736;2024-02-26T13:12:23;9.63;;;4.90;;
78489;SDS011;67776;52.012;4.736;2024-02-26T13:14:58;10.13;;;4.93;;
78489;SDS011;67776;52.012;4.736;2024-02-26T13:17:34;9.63;;;4.83;;
78489;SDS011;67776;52.012;4.736;2024-02-26T13:20:00;9.27;;;4.57;;
78489;SDS011;67776;52.012;4.736;2024-02-26T13:22:25;8.93;;;4.30;;
78489;SDS011;67776;52.012;4.736;2024-02-26T13:24:57;10.47;;;4.30;;
78489;SDS011;67776;52.012;4.736;2024-02-26T13:27:23;8.85;;;4.20;;
78489;SDS011;67776;52.012;4.736;2024-02-26T13:29:49;9.47;;;4.50;;
78489;SDS011;67776;52.012;4.736;2024-02-26T13:32:26;9.07;;;4.60;;
78489;SDS011;67776;52.012;4.736;2024-02-26T13:35:03;9.85;;;4.40;;
78489;SDS011;67776;52.012;4.736;2024-02-26T13:37:32;10.65;;;4.18;;
78489;SDS011;67776;52.012;4.736;2024-02-26T13:39:58;8.93;;;4.23;;
78489;SDS011;67776;52.012;4.736;2024-02-26T13:42:23;8.63;;;3.67;;
78489;SDS011;67776;52.012;4.736;2024-02-26T13:44:48;8.70;;;4.10;;
78489;SDS011;67776;52.012;4.736;2024-02-26T13:47:14;9.67;;;3.70;;
78489;SDS011;67776;52.012;4.736;2024-02-26T13:49:39;7.73;;;3.70;;
78489;SDS011;67776;52.012;4.736;2024-02-26T13:52:05;8.40;;;3.60;;
78489;SDS011;67776;52.012;4.736;2024-02-26T13:54:30;7.57;;;3.40;;
78489;SDS011;67776;52.012;4.736;2024-02-26T13:56:55;7.55;;;3.88;;
78489;SDS011;67776;52.012;4.736;2024-02-26T13:59:21;7.97;;;3.30;;
78489;SDS011;67776;52.012;4.736;2024-02-26T14:01:46;9.70;;;3.27;;
78489;SDS011;67776;52.012;4.736;2024-02-26T14:04:11;7.50;;;3.10;;
78489;SDS011;67776;52.012;4.736;2024-02-26T14:06:37;8.30;;;3.20;;
78489;SDS011;67776;52.012;4.736;2024-02-26T14:09:02;8.20;;;3.10;;
78489;SDS011;67776;52.012;4.736;2024-02-26T14:11:29;8.27;;;3.00;;
78489;SDS011;67776;52.012;4.736;2024-02-26T14:13:54;6.67;;;2.90;;
78489;SDS011;67776;52.012;4.736;2024-02-26T14:16:19;7.00;;;2.90;;
78489;SDS011;67776;52.012;4.736;2024-02-26T14:18:45;8.30;;;3.20;;
78489;SDS011;67776;52.012;4.736;2024-02-26T14:21:11;7.35;;;3.22;;
78489;SDS011;67776;52.012;4.736;2024-02-26T14:23:37;6.77;;;3.07;;
78489;SDS011;67776;52.012;4.736;2024-02-26T14:26:02;7.53;;;2.70;;
78489;SDS011;67776;52.012;4.736;2024-02-26T14:28:28;8.00;;;2.93;;
78489;SDS011;67776;52.012;4.736;2024-02-26T14:30:54;7.07;;;3.22;;
78489;SDS011;67776;52.012;4.736;2024-02-26T14:33:19;6.13;;;2.63;;
78489;SDS011;67776;52.012;4.736;2024-02-26T14:35:45;7.73;;;2.90;;